Time;durP1;ratioP1;P1;durP2;ratioP2;P2;SDS_P1;SDS_P2;PMS_P1;PMS_P2;Temp;Humidity;BMP_temperature;BMP_pressure;BME280_temperature;BME280_humidity;BME280_pressure;Samples;Min_cycle;Max_cycle;Signal;HPM_P1;HPM_P2
2021/12/27 00:00:38;;;;;;;;;3.67;2.67;;;;;12.44;75.26;99604.78;4993119;28;45393;-88
2021/12/27 00:03:04;;;;;;;;;1.00;1.00;;;;;13.65;75.44;99793.34;4992886;28;45549;-90
2021/12/27 00:05:30;;;;;;;;;2.00;2.00;;;;;13.62;75.52;99790.00;4992746;28;45437;-89
2021/12/27 00:07:56;;;;;;;;;1.33;1.33;;;;;12.74;75.74;99643.69;4996118;28;45384;-89
2021/12/27 00:10:24;;;;;;;;;2.00;1.00;;;;;13.00;75.89;99681.94;4995995;28;45647;-88
2021/12/27 00:12:50;;;;;;;;;1.33;1.33;;;;;13.44;75.57;99763.59;4995759;28;46192;-89
2021/12/27 00:15:16;;;;;;;;;3.00;1.33;;;;;13.41;75.60;99761.13;4995975;28;45614;-87
2021/12/27 00:17:42;;;;;;;;;1.33;1.33;;;;;13.17;75.73;99725.38;4993917;28;45487;-86
2021/12/27 00:20:11;;;;;;;;;5.00;1.67;;;;;13.48;75.88;99773.09;4996323;28;45470;-88
2021/12/27 00:22:37;;;;;;;;;4.00;2.00;;;;;12.55;76.46;99621.84;4995722;28;46122;-89
2021/12/27 00:25:04;;;;;;;;;2.00;2.00;;;;;13.52;76.16;99771.06;5010720;28;45751;-88
2021/12/27 00:27:30;;;;;;;;;1.00;1.00;;;;;13.18;75.95;99711.91;4995867;28;45483;-86
2021/12/27 00:29:55;;;;;;;;;4.00;2.33;;;;;13.32;75.84;99732.34;4996227;28;45461;-90
2021/12/27 00:32:21;;;;;;;;;5.33;1.00;;;;;12.99;75.65;99679.38;4994097;28;48215;-87
2021/12/27 00:34:46;;;;;;;;;1.33;1.00;;;;;12.43;75.59;99581.69;4994110;28;45454;-89
2021/12/27 00:37:11;;;;;;;;;1.67;1.00;;;;;13.52;75.88;99761.22;4995618;28;45380;-87
2021/12/27 00:39:37;;;;;;;;;2.33;2.33;;;;;12.94;76.29;99668.16;4995995;28;45535;-88
2021/12/27 00:42:04;;;;;;;;;1.00;1.00;;;;;12.96;75.78;99652.84;4994220;28;47417;-87
2021/12/27 00:44:30;;;;;;;;;2.00;0.00;;;;;13.05;75.54;99670.94;4994259;28;45386;-88
2021/12/27 00:46:55;;;;;;;;;2.00;1.00;;;;;12.69;75.75;99603.06;4994106;28;45312;-87
2021/12/27 00:49:21;;;;;;;;;1.67;1.00;;;;;13.56;75.68;99748.47;4994549;28;45392;-88
2021/12/27 00:51:47;;;;;;;;;2.00;0.67;;;;;13.00;75.39;99667.72;4995524;28;46178;-88
2021/12/27 00:54:12;;;;;;;;;1.67;1.00;;;;;13.51;75.65;99738.09;4995422;28;45801;-87
2021/12/27 00:56:38;;;;;;;;;0.67;0.67;;;;;13.24;74.64;99700.75;4995432;28;45462;-88
2021/12/27 00:59:03;;;;;;;;;3.00;1.33;;;;;13.56;74.96;99750.31;4995690;28;45447;-87
2021/12/27 01:01:29;;;;;;;;;1.00;1.00;;;;;12.93;75.22;99645.91;4995183;28;45614;-88
2021/12/27 01:03:54;;;;;;;;;1.67;0.33;;;;;12.88;74.77;99651.59;4994021;28;45914;-87
2021/12/27 01:06:20;;;;;;;;;2.00;1.00;;;;;12.95;75.38;99651.16;4994317;28;45431;-89
2021/12/27 01:08:45;;;;;;;;;0.33;0.33;;;;;12.83;74.77;99624.31;4994132;28;45658;-86
2021/12/27 01:11:24;;;;;;;;;1.00;1.00;;;;;13.54;74.85;99737.00;4995225;28;46001;-87
2021/12/27 01:14:11;;;;;;;;;2.67;1.67;;;;;13.48;74.93;99737.44;4993399;28;45233;-87
2021/12/27 01:16:38;;;;;;;;;1.00;1.00;;;;;13.35;75.02;99709.88;4993726;28;45409;-87
2021/12/27 01:19:05;;;;;;;;;1.00;1.00;;;;;12.63;75.19;99588.28;4994282;28;45443;-87
2021/12/27 01:21:31;;;;;;;;;0.67;0.67;;;;;12.87;75.02;99627.63;4995032;28;46240;-86
2021/12/27 01:23:57;;;;;;;;;2.00;0.00;;;;;13.22;74.58;99675.06;4995311;28;45508;-86
2021/12/27 01:26:25;;;;;;;;;1.00;1.00;;;;;13.22;74.94;99672.38;4995284;28;45505;-87
2021/12/27 01:28:50;;;;;;;;;0.00;0.00;;;;;12.75;74.74;99594.59;5010087;28;45353;-87
2021/12/27 01:31:16;;;;;;;;;0.00;0.00;;;;;13.52;75.45;99714.84;4995009;28;45537;-87
2021/12/27 01:33:43;;;;;;;;;0.67;0.67;;;;;12.76;75.44;99590.97;4993609;28;45381;-88
2021/12/27 01:36:10;;;;;;;;;0.67;0.67;;;;;13.31;75.54;99685.13;4994986;28;45589;-87
2021/12/27 01:38:36;;;;;;;;;1.00;1.00;;;;;13.52;75.43;99715.69;4994234;28;45629;-88
2021/12/27 01:41:04;;;;;;;;;1.00;1.00;;;;;13.57;75.66;99701.13;4994868;28;46395;-87
2021/12/27 01:43:32;;;;;;;;;1.00;1.00;;;;;13.48;75.33;99691.94;5009887;28;45307;-87
2021/12/27 01:46:08;;;;;;;;;2.33;1.00;;;;;12.84;74.52;99590.41;4994827;28;45492;-87
2021/12/27 01:48:38;;;;;;;;;0.00;0.00;;;;;13.54;75.42;99693.34;4993861;28;45612;-87
2021/12/27 01:51:06;;;;;;;;;1.00;1.00;;;;;13.55;75.34;99689.69;4994945;28;46162;-87
2021/12/27 01:53:33;;;;;;;;;0.67;0.33;;;;;13.52;75.55;99691.59;4995098;28;45430;-87
2021/12/27 01:55:59;;;;;;;;;0.00;0.00;;;;;12.62;74.92;99551.00;4994903;28;45412;-87
2021/12/27 01:58:26;;;;;;;;;0.67;0.67;;;;;12.99;75.77;99613.34;4993572;28;45465;-88
2021/12/27 02:00:54;;;;;;;;;1.67;0.33;;;;;12.71;75.11;99569.03;4993157;28;48436;-88
2021/12/27 02:03:23;;;;;;;;;0.00;0.00;;;;;12.91;74.78;99605.03;4993504;28;46158;-88
2021/12/27 02:05:48;;;;;;;;;1.67;1.00;;;;;12.79;74.98;99587.22;4993358;28;45353;-89
2021/12/27 02:08:14;;;;;;;;;1.67;1.67;;;;;12.76;75.45;99564.22;5010218;28;45552;-88
2021/12/27 02:10:40;;;;;;;;;0.67;0.67;;;;;13.14;74.59;99632.81;4994695;28;45390;-87
2021/12/27 02:13:06;;;;;;;;;0.67;0.67;;;;;13.26;75.55;99664.03;4992737;28;45454;-87
2021/12/27 02:15:32;;;;;;;;;1.00;1.00;;;;;12.92;74.97;99605.88;4994764;28;45469;-87
2021/12/27 02:17:57;;;;;;;;;1.67;0.33;;;;;12.67;75.09;99546.16;4995104;28;45515;-86
2021/12/27 02:20:27;;;;;;;;;1.33;0.67;;;;;13.51;75.15;99695.25;4993188;28;48259;-87
2021/12/27 02:22:55;;;;;;;;;1.00;0.00;;;;;13.52;75.27;99691.59;4994315;28;45483;-86
2021/12/27 02:25:21;;;;;;;;;1.67;0.00;;;;;12.76;75.20;99569.56;4994638;28;45485;-86
2021/12/27 02:27:48;;;;;;;;;1.00;1.00;;;;;13.21;75.71;99643.94;4993009;28;45414;-87
2021/12/27 02:30:21;;;;;;;;;2.67;1.00;;;;;13.25;75.72;99643.59;4993590;28;46405;-87
2021/12/27 02:32:48;;;;;;;;;0.33;0.33;;;;;12.41;76.12;99511.47;4994334;28;45353;-87
2021/12/27 02:35:20;;;;;;;;;1.00;1.00;;;;;12.95;75.96;99590.50;4994415;28;45538;-88
2021/12/27 02:37:45;;;;;;;;;0.00;0.00;;;;;12.83;76.35;99577.97;4994444;28;45444;-88
2021/12/27 02:40:12;;;;;;;;;0.67;0.00;;;;;13.43;75.88;99676.22;4994146;28;45799;-87
2021/12/27 02:43:08;;;;;;;;;1.00;1.00;;;;;13.42;76.30;99679.03;4992539;28;45287;-87
2021/12/27 02:45:40;;;;;;;;;2.00;1.00;;;;;13.10;76.15;99625.97;4993059;28;45407;-87
2021/12/27 02:48:08;;;;;;;;;0.33;0.33;;;;;12.79;76.23;99573.84;4993191;28;45488;-87
2021/12/27 02:50:35;;;;;;;;;0.00;0.00;;;;;13.13;76.46;99620.38;4992680;28;48136;-89
2021/12/27 02:53:01;;;;;;;;;1.00;1.00;;;;;13.41;75.76;99664.75;4994049;28;45501;-85
2021/12/27 02:55:27;;;;;;;;;1.00;1.00;;;;;12.33;75.62;99504.94;4993997;28;45463;-87
2021/12/27 02:57:52;;;;;;;;;0.67;0.67;;;;;12.37;76.14;99491.25;4993076;28;45634;-87
2021/12/27 03:00:27;;;;;;;;;0.00;0.00;;;;;12.96;75.67;99602.88;4992701;28;47105;-86
2021/12/27 03:02:53;;;;;;;;;0.00;0.00;;;;;12.30;75.92;99486.47;4994063;28;45497;-89
2021/12/27 03:05:20;;;;;;;;;0.67;0.67;;;;;12.72;75.91;99552.03;4994149;28;45510;-86
2021/12/27 03:07:47;;;;;;;;;1.00;1.00;;;;;13.02;76.13;99598.94;4993319;28;45506;-87
2021/12/27 03:10:16;;;;;;;;;2.33;1.00;;;;;12.80;75.96;99563.00;4993452;28;46593;-86
2021/12/27 03:12:43;;;;;;;;;2.00;2.00;;;;;13.10;75.95;99613.44;4992472;28;45261;-86
2021/12/27 03:15:11;;;;;;;;;1.67;1.67;;;;;12.43;76.00;99504.19;4993923;28;45607;-86
2021/12/27 03:17:37;;;;;;;;;1.67;1.67;;;;;12.72;75.90;99556.53;4994414;28;45500;-86
2021/12/27 03:20:07;;;;;;;;;2.33;2.00;;;;;12.50;76.10;99523.28;4993455;28;45613;-87
2021/12/27 03:22:33;;;;;;;;;2.33;1.33;;;;;13.31;76.27;99647.66;4992597;28;46288;-87
2021/12/27 03:24:59;;;;;;;;;1.67;1.67;;;;;12.74;75.80;99542.09;4993555;28;45511;-87
2021/12/27 03:27:24;;;;;;;;;1.00;1.00;;;;;12.76;75.76;99540.16;4994075;28;45466;-86
2021/12/27 03:29:50;;;;;;;;;3.33;2.00;;;;;12.77;75.60;99549.88;4993726;28;45497;-87
2021/12/27 03:32:17;;;;;;;;;1.67;1.67;;;;;13.35;75.23;99640.28;4992284;28;45824;-86
2021/12/27 03:34:53;;;;;;;;;2.33;2.33;;;;;12.97;75.57;99580.53;4993793;28;45321;-87
2021/12/27 03:37:23;;;;;;;;;3.67;1.00;;;;;13.08;75.56;99585.94;4993476;28;45674;-87
2021/12/27 03:39:48;;;;;;;;;2.67;1.00;;;;;12.61;75.73;99511.84;4992717;28;45477;-87
2021/12/27 03:42:15;;;;;;;;;2.00;1.00;;;;;12.43;75.42;99473.91;4990923;28;45560;-87
2021/12/27 03:44:42;;;;;;;;;1.33;1.33;;;;;12.54;75.53;99490.03;4993803;28;45445;-88
2021/12/27 03:47:07;;;;;;;;;4.67;3.00;;;;;13.34;75.71;99611.81;5008843;28;45368;-87
2021/12/27 03:49:33;;;;;;;;;2.33;1.33;;;;;12.57;75.39;99468.47;4993291;28;45582;-87
2021/12/27 03:51:58;;;;;;;;;3.00;3.00;;;;;13.16;75.26;99555.97;4993430;28;45411;-87
2021/12/27 03:54:24;;;;;;;;;4.00;3.00;;;;;12.51;75.20;99444.00;4991687;28;45476;-88
2021/12/27 03:56:49;;;;;;;;;2.67;2.00;;;;;12.75;75.04;99484.13;4993930;28;45400;-86
2021/12/27 03:59:24;;;;;;;;;5.33;3.00;;;;;13.44;75.00;99612.84;4993058;28;45371;-86
2021/12/27 04:01:50;;;;;;;;;4.00;4.00;;;;;12.61;74.78;99483.28;4993431;28;45411;-86
2021/12/27 04:04:15;;;;;;;;;2.67;2.67;;;;;13.10;75.04;99561.75;4993187;28;45217;-86
2021/12/27 04:06:41;;;;;;;;;1.67;1.67;;;;;12.52;75.13;99491.13;4993825;28;45353;-86
2021/12/27 04:09:07;;;;;;;;;2.67;2.67;;;;;12.35;75.29;99460.28;4991239;28;46199;-86
2021/12/27 04:11:32;;;;;;;;;3.00;2.00;;;;;12.75;75.28;99514.38;4993232;28;45398;-87
2021/12/27 04:13:59;;;;;;;;;2.67;1.67;;;;;12.61;75.23;99501.16;4993210;28;45716;-88
2021/12/27 04:16:24;;;;;;;;;2.67;2.67;;;;;12.78;75.17;99532.00;4993242;28;45487;-87
2021/12/27 04:18:50;;;;;;;;;4.00;3.00;;;;;12.61;75.15;99496.66;4992884;27;46304;-87
2021/12/27 04:21:15;;;;;;;;;3.67;3.67;;;;;12.99;75.50;99551.84;4992989;28;45537;-87
2021/12/27 04:23:41;;;;;;;;;4.33;2.00;;;;;12.75;75.45;99530.41;4992758;28;45576;-86
2021/12/27 04:26:07;;;;;;;;;4.67;2.00;;;;;13.04;74.91;99570.22;4993314;28;45522;-86
2021/12/27 04:28:32;;;;;;;;;2.67;2.67;;;;;12.97;75.36;99548.44;4993028;28;46218;-86
2021/12/27 04:30:57;;;;;;;;;3.00;3.00;;;;;12.42;75.17;99453.53;4992766;28;45434;-86
2021/12/27 04:33:23;;;;;;;;;5.00;3.00;;;;;12.06;75.31;99403.56;4991485;28;45468;-87
2021/12/27 04:35:48;;;;;;;;;5.67;4.67;;;;;13.04;75.14;99583.59;4991862;28;45565;-86
2021/12/27 04:38:14;;;;;;;;;3.67;2.00;;;;;12.81;75.81;99550.53;4992189;28;46453;-86
2021/12/27 04:40:42;;;;;;;;;2.67;1.33;;;;;13.17;75.26;99591.59;4992817;28;45441;-86
2021/12/27 04:43:13;;;;;;;;;3.67;2.00;;;;;12.47;75.36;99491.44;4992832;28;45442;-86
2021/12/27 04:45:41;;;;;;;;;2.00;2.00;;;;;12.60;75.54;99494.13;4992706;28;45537;-86
2021/12/27 04:48:07;;;;;;;;;4.67;2.00;;;;;12.59;75.53;99495.06;4992459;28;45396;-86
2021/12/27 04:50:33;;;;;;;;;5.67;4.33;;;;;13.05;75.26;99571.94;4992672;28;45331;-86
2021/12/27 04:52:59;;;;;;;;;5.33;3.00;;;;;13.28;75.21;99603.25;4994358;28;45502;-87
2021/12/27 04:55:26;;;;;;;;;5.00;2.33;;;;;13.32;74.91;99613.72;4995858;28;45404;-86
2021/12/27 04:57:52;;;;;;;;;3.67;2.67;;;;;12.65;74.82;99518.69;4995791;28;46297;-86
2021/12/27 05:00:18;;;;;;;;;2.33;2.33;;;;;13.37;75.37;99614.25;4993849;28;45532;-86
2021/12/27 05:02:43;;;;;;;;;7.00;4.00;;;;;12.92;74.42;99549.72;4995707;28;45468;-86
2021/12/27 05:05:09;;;;;;;;;4.33;2.33;;;;;13.36;74.50;99624.09;4994751;28;45534;-86
2021/12/27 05:07:35;;;;;;;;;3.67;3.67;;;;;13.24;74.92;99608.91;4993796;28;48399;-86
2021/12/27 05:10:00;;;;;;;;;3.00;3.00;;;;;12.45;74.60;99480.91;4994080;28;45544;-86
2021/12/27 05:12:26;;;;;;;;;3.33;3.00;;;;;11.88;74.61;99387.91;4995282;28;45496;-86
2021/12/27 05:14:52;;;;;;;;;1.67;0.67;;;;;13.40;74.81;99620.25;4994383;28;45497;-86
2021/12/27 05:17:17;;;;;;;;;2.33;2.33;;;;;12.82;74.15;99523.66;4995356;28;45367;-86
2021/12/27 05:19:42;;;;;;;;;4.00;2.67;;;;;13.26;74.23;99596.28;4995424;28;45424;-86
2021/12/27 05:22:08;;;;;;;;;3.33;2.67;;;;;12.61;74.68;99490.47;4993767;28;45827;-86
2021/12/27 05:24:33;;;;;;;;;3.00;2.00;;;;;12.70;74.63;99499.63;4994199;28;45468;-86
2021/12/27 05:26:59;;;;;;;;;3.67;3.00;;;;;12.93;74.34;99548.78;4993967;28;48381;-84
2021/12/27 05:29:24;;;;;;;;;1.67;1.67;;;;;13.20;74.65;99586.03;4995180;28;45486;-84
2021/12/27 05:31:50;;;;;;;;;4.00;3.00;;;;;13.36;74.84;99607.19;4995484;28;45493;-86
2021/12/27 05:34:16;;;;;;;;;4.00;3.00;;;;;12.83;74.49;99513.81;4994037;28;45559;-86
2021/12/27 05:36:42;;;;;;;;;3.67;2.00;;;;;12.75;74.27;99492.13;4993020;28;47640;-86
2021/12/27 05:39:12;;;;;;;;;2.33;2.33;;;;;13.12;73.93;99559.00;4995058;28;45512;-86
2021/12/27 05:41:38;;;;;;;;;5.00;3.00;;;;;13.20;74.44;99564.63;4995048;28;45518;-86
2021/12/27 05:44:04;;;;;;;;;3.67;2.67;;;;;12.84;74.65;99497.66;4995402;28;45646;-85
2021/12/27 05:46:29;;;;;;;;;8.00;3.00;;;;;12.45;74.60;99423.91;4994774;28;46073;-85
2021/12/27 05:48:55;;;;;;;;;3.67;3.67;;;;;13.33;75.00;99565.47;4995125;28;45451;-86
2021/12/27 05:51:20;;;;;;;;;3.00;3.00;;;;;12.72;74.62;99458.47;4993424;28;45432;-86
2021/12/27 05:53:45;;;;;;;;;1.00;1.00;;;;;12.94;74.83;99479.13;4993800;28;45599;-84
2021/12/27 05:56:11;;;;;;;;;3.67;3.67;;;;;12.57;74.61;99407.00;4993574;28;47282;-85
2021/12/27 05:58:36;;;;;;;;;4.00;2.67;;;;;12.92;74.88;99459.66;4994776;28;45527;-85
2021/12/27 06:01:02;;;;;;;;;4.00;2.00;;;;;12.80;75.16;99426.66;4993793;28;45456;-86
2021/12/27 06:03:27;;;;;;;;;4.67;3.00;;;;;13.12;74.72;99460.84;4994007;28;45444;-85
2021/12/27 06:05:52;;;;;;;;;4.67;4.67;;;;;13.04;74.81;99441.84;4994598;28;46592;-85
2021/12/27 06:08:18;;;;;;;;;3.33;2.00;;;;;13.38;74.65;99485.69;4993392;28;45845;-85
2021/12/27 06:10:43;;;;;;;;;3.00;3.00;;;;;13.37;74.46;99483.97;4995020;28;45509;-85
2021/12/27 06:13:09;;;;;;;;;4.67;3.00;;;;;12.56;73.85;99354.47;4993784;28;45447;-85
2021/12/27 06:15:34;;;;;;;;;4.33;4.00;;;;;12.43;74.37;99324.28;4994226;28;46116;-85
2021/12/27 06:18:00;;;;;;;;;4.00;4.00;;;;;13.08;75.04;99441.50;4993377;28;45372;-85
2021/12/27 06:20:25;;;;;;;;;6.33;3.67;;;;;12.44;74.43;99324.19;4994301;28;45407;-86
2021/12/27 06:22:57;;;;;;;;;8.00;4.00;;;;;13.08;74.45;99414.75;4993673;28;45381;-85
2021/12/27 06:25:24;;;;;;;;;4.67;4.67;;;;;12.47;74.53;99299.03;4994681;28;46133;-85
2021/12/27 06:27:50;;;;;;;;;6.67;4.00;;;;;12.66;74.23;99317.22;4994469;28;45375;-85
2021/12/27 06:30:16;;;;;;;;;5.67;5.67;;;;;12.59;74.56;99318.66;4994570;28;45379;-85
2021/12/27 06:32:43;;;;;;;;;5.67;3.00;;;;;12.59;74.15;99303.47;4994388;28;45337;-85
2021/12/27 06:35:11;;;;;;;;;6.00;5.33;;;;;12.68;74.48;99331.31;4994530;28;45598;-85
2021/12/27 06:37:38;;;;;;;;;5.67;5.67;;;;;12.63;74.21;99312.97;4994016;28;45517;-85
2021/12/27 06:40:04;;;;;;;;;4.33;4.33;;;;;12.35;74.72;99262.56;4994421;28;45570;-85
2021/12/27 06:42:29;;;;;;;;;9.33;6.67;;;;;13.02;74.54;99368.91;4994745;28;45340;-85
2021/12/27 06:44:55;;;;;;;;;9.00;7.33;;;;;12.73;74.33;99337.19;4992850;28;48086;-85
2021/12/27 06:47:20;;;;;;;;;5.00;5.00;;;;;12.97;74.40;99384.41;4994046;28;47540;-84
2021/12/27 06:49:47;;;;;;;;;7.00;5.00;;;;;12.09;74.11;99235.13;4994343;28;45321;-84
2021/12/27 06:52:13;;;;;;;;;10.00;5.33;;;;;12.31;74.41;99291.31;4994675;28;45394;-84
2021/12/27 06:54:40;;;;;;;;;7.00;4.67;;;;;12.29;74.10;99281.72;4993744;28;46090;-87
2021/12/27 06:57:05;;;;;;;;;5.33;5.00;;;;;12.36;74.50;99291.84;4994222;28;45380;-84
2021/12/27 06:59:31;;;;;;;;;7.33;6.33;;;;;12.30;73.92;99288.78;4994075;28;45406;-84
2021/12/27 07:01:56;;;;;;;;;8.33;5.00;;;;;12.07;73.75;99245.91;4994270;28;45381;-85
2021/12/27 07:04:22;;;;;;;;;7.67;5.67;;;;;12.18;74.52;99280.69;4994104;28;45412;-84
2021/12/27 07:06:48;;;;;;;;;4.67;4.67;;;;;11.87;74.71;99243.81;4992622;28;45459;-85
2021/12/27 07:09:14;;;;;;;;;9.33;7.00;;;;;11.96;75.42;99264.53;4994360;28;45229;-85
2021/12/27 07:11:41;;;;;;;;;8.00;5.33;;;;;12.06;74.80;99284.28;4994609;28;45379;-84
2021/12/27 07:14:06;;;;;;;;;6.67;5.33;;;;;11.90;75.25;99263.19;4994100;28;45343;-85
2021/12/27 07:16:32;;;;;;;;;7.00;6.00;;;;;11.92;75.67;99249.72;4993336;28;45392;-85
2021/12/27 07:18:57;;;;;;;;;8.33;6.33;;;;;12.64;74.94;99370.81;4994160;28;45411;-84
2021/12/27 07:21:23;;;;;;;;;6.00;5.33;;;;;12.03;74.98;99269.34;4994562;28;45379;-85
2021/12/27 07:23:48;;;;;;;;;7.00;5.33;;;;;11.97;75.13;99261.75;4993722;28;45724;-85
2021/12/27 07:26:13;;;;;;;;;6.33;5.33;;;;;11.91;75.38;99256.84;4993951;28;45569;-84
2021/12/27 07:28:39;;;;;;;;;9.00;6.67;;;;;12.69;75.15;99405.22;4993831;28;45488;-84
2021/12/27 07:31:06;;;;;;;;;7.00;5.67;;;;;12.03;75.47;99293.38;4992115;28;45483;-85
2021/12/27 07:33:31;;;;;;;;;7.00;5.00;;;;;11.84;78.91;99280.44;4993549;28;46179;-86
2021/12/27 07:35:56;;;;;;;;;7.67;7.67;;;;;12.58;79.33;99405.16;4991871;28;46013;-86
2021/12/27 07:38:22;;;;;;;;;5.67;4.67;;;;;12.47;78.21;99403.25;4993684;28;45497;-86
2021/12/27 07:40:47;;;;;;;;;7.67;6.67;;;;;11.97;78.68;99330.34;4993556;28;45301;-87
2021/12/27 07:43:13;;;;;;;;;8.67;6.00;;;;;11.62;78.62;99288.31;4993368;28;46347;-86
2021/12/27 07:45:38;;;;;;;;;7.00;6.00;;;;;11.59;78.58;99294.72;4993061;28;45463;-86
2021/12/27 07:48:07;;;;;;;;;6.00;4.00;;;;;11.66;78.54;99303.16;4993576;28;45503;-87
2021/12/27 07:50:33;;;;;;;;;6.33;5.33;;;;;11.82;78.69;99350.94;4993819;28;45365;-86
2021/12/27 07:52:59;;;;;;;;;5.67;5.67;;;;;11.79;81.49;99343.16;4992826;28;46195;-87
2021/12/27 07:55:27;;;;;;;;;4.33;3.67;;;;;11.60;81.96;99317.75;4993093;28;45435;-86
2021/12/27 07:57:56;;;;;;;;;4.33;4.33;;;;;11.55;81.81;99300.38;4991825;28;45570;-87
2021/12/27 08:00:22;;;;;;;;;7.33;6.00;;;;;11.53;81.81;99304.97;4993225;28;45726;-86
2021/12/27 08:02:48;;;;;;;;;6.67;5.67;;;;;12.20;81.38;99390.13;4992597;28;45450;-87
2021/12/27 08:05:14;;;;;;;;;7.00;5.33;;;;;11.33;78.34;99261.03;4993278;28;45663;-85
2021/12/27 08:07:41;;;;;;;;;4.67;4.67;;;;;11.53;78.53;99280.97;4991612;28;45446;-86
2021/12/27 08:10:08;;;;;;;;;3.67;3.67;;;;;12.04;77.81;99355.63;4991851;28;45328;-86
2021/12/27 08:12:34;;;;;;;;;4.33;4.33;;;;;12.32;77.28;99391.88;4992888;28;46530;-86
2021/12/27 08:14:59;;;;;;;;;4.33;3.67;;;;;11.35;76.79;99238.59;4992233;28;45492;-86
2021/12/27 08:17:25;;;;;;;;;4.33;3.33;;;;;12.29;76.05;99388.56;4993193;28;45734;-84
2021/12/27 08:19:50;;;;;;;;;5.67;4.00;;;;;11.44;76.40;99257.59;4991646;28;45504;-85
2021/12/27 08:22:16;;;;;;;;;4.00;4.00;;;;;11.47;76.27;99257.38;4992756;28;45856;-86
2021/12/27 08:24:41;;;;;;;;;3.67;3.67;;;;;11.48;76.67;99246.59;4992937;28;45440;-85
2021/12/27 08:27:07;;;;;;;;;7.00;3.67;;;;;11.78;76.73;99298.75;4993541;28;45314;-85
2021/12/27 08:29:32;;;;;;;;;4.33;3.00;;;;;12.35;76.59;99380.13;4995923;28;45401;-85
2021/12/27 08:31:58;;;;;;;;;2.33;2.33;;;;;12.35;75.28;99377.44;4994316;28;47161;-85
2021/12/27 08:34:24;;;;;;;;;3.00;3.00;;;;;11.73;75.52;99272.38;4995842;28;45514;-84
2021/12/27 08:36:49;;;;;;;;;2.33;2.33;;;;;11.93;75.81;99288.81;4995510;28;45538;-85
2021/12/27 08:39:15;;;;;;;;;3.33;2.33;;;;;12.42;75.49;99373.34;4996207;28;45481;-85
2021/12/27 08:41:40;;;;;;;;;5.33;2.67;;;;;11.90;74.96;99281.03;4995662;28;46223;-85
2021/12/27 08:44:06;;;;;;;;;4.00;2.33;;;;;11.86;75.00;99272.34;4995158;28;45483;-85
2021/12/27 08:46:34;;;;;;;;;5.00;5.00;;;;;12.51;75.02;99369.16;4995950;28;45335;-85
2021/12/27 08:49:00;;;;;;;;;4.33;4.00;;;;;12.51;74.51;99359.31;4995959;28;45401;-84
2021/12/27 08:51:25;;;;;;;;;8.67;6.67;;;;;11.90;74.77;99267.69;4995330;28;46385;-85
2021/12/27 08:53:52;;;;;;;;;7.67;7.67;;;;;12.52;74.24;99357.50;4995558;28;45349;-84
2021/12/27 08:56:19;;;;;;;;;6.33;6.33;;;;;12.09;75.01;99277.84;4995908;28;45395;-85
2021/12/27 08:58:45;;;;;;;;;12.33;11.00;;;;;11.64;74.83;99184.13;4995463;28;45464;-85
2021/12/27 09:01:10;;;;;;;;;7.00;5.67;;;;;12.32;74.33;99298.38;4995312;28;45616;-85
2021/12/27 09:03:36;;;;;;;;;5.67;5.67;;;;;12.51;74.28;99339.75;4995126;28;45475;-84
2021/12/27 09:06:03;;;;;;;;;3.67;3.33;;;;;11.83;74.43;99219.19;4995408;28;45491;-85
2021/12/27 09:08:29;;;;;;;;;3.67;2.33;;;;;12.03;74.26;99245.31;4995833;28;45537;-85
2021/12/27 09:10:57;;;;;;;;;3.67;3.67;;;;;12.65;74.13;99350.28;4993755;28;46131;-84
2021/12/27 09:13:25;;;;;;;;;3.33;2.33;;;;;11.78;74.00;99224.00;4993649;28;45488;-85
2021/12/27 09:15:51;;;;;;;;;4.00;4.00;;;;;12.60;73.55;99352.44;4994112;28;45454;-84
2021/12/27 09:18:16;;;;;;;;;3.00;3.00;;;;;12.37;73.82;99306.06;4995623;28;45373;-85
2021/12/27 09:20:41;;;;;;;;;3.00;3.00;;;;;11.70;73.95;99200.53;4995214;28;45457;-83
2021/12/27 09:23:07;;;;;;;;;4.67;4.67;;;;;12.56;73.59;99341.13;4995041;28;45339;-84
2021/12/27 09:25:32;;;;;;;;;3.33;3.33;;;;;11.93;73.70;99246.94;4995353;28;45387;-84
2021/12/27 09:27:57;;;;;;;;;3.67;3.00;;;;;12.28;74.45;99299.56;4995372;28;45398;-84
2021/12/27 09:30:23;;;;;;;;;6.00;4.33;;;;;12.12;74.38;99262.44;4995084;28;45419;-84
2021/12/27 09:32:50;;;;;;;;;2.67;2.67;;;;;12.07;73.78;99253.06;4995156;28;45404;-84
2021/12/27 09:35:16;;;;;;;;;5.67;4.67;;;;;12.12;74.04;99261.59;4993697;28;45274;-84
2021/12/27 09:37:41;;;;;;;;;4.67;4.67;;;;;11.70;73.98;99192.53;4995237;28;45422;-84
2021/12/27 09:40:07;;;;;;;;;6.67;5.33;;;;;11.70;73.40;99203.19;4994942;28;46417;-87
2021/12/27 09:42:35;;;;;;;;;2.67;2.67;;;;;12.01;73.72;99238.34;4995070;28;45828;-84
2021/12/27 09:45:02;;;;;;;;;3.33;3.33;;;;;11.55;73.77;99185.66;4995054;28;45454;-84
2021/12/27 09:47:27;;;;;;;;;3.67;2.33;;;;;11.49;73.89;99165.59;4995401;28;45530;-86
2021/12/27 09:49:53;;;;;;;;;4.00;2.67;;;;;11.58;74.55;99180.94;4994924;28;45482;-84
2021/12/27 09:52:18;;;;;;;;;4.67;2.33;;;;;11.46;74.88;99179.16;4993598;28;45469;-84
2021/12/27 09:54:47;;;;;;;;;3.67;2.67;;;;;11.90;75.01;99244.50;4995155;28;45378;-84
2021/12/27 09:57:13;;;;;;;;;3.00;3.00;;;;;11.77;75.13;99228.47;4995099;28;45350;-84
2021/12/27 09:59:39;;;;;;;;;4.00;3.00;;;;;11.72;74.77;99217.28;4994642;28;45507;-84
2021/12/27 10:02:05;;;;;;;;;4.33;4.33;;;;;11.59;75.12;99211.16;4994639;28;45454;-84
2021/12/27 10:04:32;;;;;;;;;5.67;5.67;;;;;12.37;75.20;99335.44;4995000;28;45525;-84
2021/12/27 10:06:57;;;;;;;;;5.00;5.00;;;;;11.65;75.13;99213.34;4995161;28;45441;-84
2021/12/27 10:09:23;;;;;;;;;4.33;4.33;;;;;11.33;75.47;99187.22;4994522;28;46132;-84
2021/12/27 10:11:48;;;;;;;;;3.33;3.33;;;;;11.50;75.25;99206.50;4993259;28;45332;-84
2021/12/27 10:14:17;;;;;;;;;4.00;4.00;;;;;12.27;75.76;99335.28;4994496;28;45403;-84
2021/12/27 10:16:45;;;;;;;;;3.33;3.33;;;;;12.22;75.04;99342.75;4995077;28;45538;-84
2021/12/27 10:19:13;;;;;;;;;4.67;4.67;;;;;12.01;75.82;99307.78;4994382;28;46188;-84
2021/12/27 10:21:42;;;;;;;;;4.33;4.33;;;;;11.59;76.12;99225.34;4994669;28;45504;-84
2021/12/27 10:24:14;;;;;;;;;3.33;3.33;;;;;11.89;76.10;99274.81;4994765;28;45473;-83
2021/12/27 10:26:41;;;;;;;;;4.33;3.33;;;;;11.43;76.54;99211.41;4994654;28;45259;-83
2021/12/27 10:29:26;;;;;;;;;4.33;4.33;;;;;11.65;76.50;99257.88;4994419;28;46186;-83
2021/12/27 10:32:16;;;;;;;;;4.00;4.00;;;;;12.09;76.75;99324.09;4994726;28;45484;-84
2021/12/27 10:34:46;;;;;;;;;2.67;2.33;;;;;12.07;76.93;99318.00;4994472;28;45396;-84
2021/12/27 10:37:12;;;;;;;;;3.00;3.00;;;;;12.07;76.95;99309.16;4994405;28;45385;-83
2021/12/27 10:39:56;;;;;;;;;5.00;3.67;;;;;12.09;77.14;99309.91;4992656;28;46052;-84
2021/12/27 10:42:23;;;;;;;;;4.00;4.00;;;;;11.10;76.79;99134.69;4994258;28;45451;-85
2021/12/27 10:44:53;;;;;;;;;3.67;2.33;;;;;12.11;76.95;99300.81;4994512;28;45609;-84
2021/12/27 10:47:33;;;;;;;;;4.33;2.67;;;;;10.99;76.63;99127.44;4994594;28;45416;-83
2021/12/27 10:50:03;;;;;;;;;2.00;2.00;;;;;11.67;77.12;99226.59;4993954;28;45496;-83
2021/12/27 10:52:59;;;;;;;;;3.00;3.00;;;;;12.17;76.67;99305.69;4994180;28;45362;-83
2021/12/27 10:55:43;;;;;;;;;4.33;3.33;;;;;12.19;77.21;99308.25;4993886;28;45352;-83
2021/12/27 10:58:14;;;;;;;;;4.00;3.67;;;;;12.23;76.88;99310.59;4994724;28;45472;-83
2021/12/27 11:00:40;;;;;;;;;4.00;4.00;;;;;11.28;76.70;99153.81;4994267;28;45465;-84
2021/12/27 11:03:06;;;;;;;;;3.00;3.00;;;;;11.62;76.24;99217.09;4994273;28;45424;-83
2021/12/27 11:05:35;;;;;;;;;2.67;2.67;;;;;11.84;75.95;99243.06;4993087;28;45751;-83
2021/12/27 11:08:05;;;;;;;;;4.00;3.33;;;;;11.38;76.13;99165.53;4994802;28;45419;-83
2021/12/27 11:10:34;;;;;;;;;2.00;2.00;;;;;11.79;76.53;99221.22;4994177;28;46328;-83
2021/12/27 11:13:00;;;;;;;;;2.33;2.33;;;;;12.27;75.96;99315.69;4994068;28;45556;-83
2021/12/27 11:15:30;;;;;;;;;4.00;3.00;;;;;12.40;76.44;99332.53;4994273;28;45492;-83
2021/12/27 11:17:57;;;;;;;;;1.67;1.67;;;;;12.45;76.65;99327.69;4994636;28;45416;-83
2021/12/27 11:20:23;;;;;;;;;6.67;3.33;;;;;12.53;76.44;99329.81;4994006;28;45432;-83
2021/12/27 11:22:51;;;;;;;;;8.67;8.67;;;;;12.57;76.46;99334.81;4993697;28;45514;-83
2021/12/27 11:25:30;;;;;;;;;5.00;5.00;;;;;12.59;75.84;99334.69;4992931;28;45414;-83
2021/12/27 11:27:57;;;;;;;;;3.67;2.00;;;;;12.06;75.58;99235.34;4994597;28;45398;-83
2021/12/27 11:30:26;;;;;;;;;3.00;3.00;;;;;12.06;75.59;99225.53;4992546;28;47357;-84
2021/12/27 11:33:03;;;;;;;;;3.67;3.33;;;;;12.68;75.41;99320.63;4994059;28;45517;-83